Time;durP1;ratioP1;P1;durP2;ratioP2;P2;SDS_P1;SDS_P2;PMS_P1;PMS_P2;Temp;Humidity;BMP_temperature;BMP_pressure;BME280_temperature;BME280_humidity;BME280_pressure;Samples;Min_cycle;Max_cycle;Signal;HPM_P1;HPM_P2
2023/09/08 00:01:52;;;;;;;7.47;6.05;;;26.00;78.00;;;;;;5068211;28;20044;-71
2023/09/08 00:04:20;;;;;;;7.97;5.57;;;26.80;78.70;;;;;;5060468;28;20117;-71
2023/09/08 00:06:46;;;;;;;7.50;5.85;;;26.80;78.50;;;;;;5052435;28;20052;-69
2023/09/08 00:09:12;;;;;;;6.45;5.20;;;26.40;78.60;;;;;;5070470;28;20036;-71
2023/09/08 00:11:38;;;;;;;6.95;5.60;;;26.70;78.80;;;;;;5067537;28;20405;-71
2023/09/08 00:14:04;;;;;;;8.05;5.63;;;26.70;79.20;;;;;;5051861;28;20041;-71
2023/09/08 00:16:30;;;;;;;8.30;5.82;;;26.60;78.60;;;;;;5051609;28;20048;-72
2023/09/08 00:18:59;;;;;;;8.35;5.78;;;26.80;79.60;;;;;;5051793;28;20100;-72
2023/09/08 00:21:25;;;;;;;6.90;5.53;;;26.80;78.80;;;;;;5057550;28;20044;-63
2023/09/08 00:23:52;;;;;;;8.88;5.90;;;26.50;78.40;;;;;;5040230;28;20049;-70
2023/09/08 00:26:18;;;;;;;7.93;6.00;;;26.80;78.80;;;;;;5064569;28;20466;-71
2023/09/08 00:28:44;;;;;;;8.45;5.90;;;26.70;79.10;;;;;;5057590;28;20052;-70
2023/09/08 00:31:10;;;;;;;7.20;5.80;;;26.80;78.70;;;;;;5055031;28;20537;-70
2023/09/08 00:33:36;;;;;;;7.15;5.43;;;26.50;78.30;;;;;;5083704;28;20103;-71
2023/09/08 00:36:02;;;;;;;8.40;5.97;;;27.90;79.80;;;;;;5037959;28;20037;-71
2023/09/08 00:38:28;;;;;;;7.13;5.35;;;26.70;78.50;;;;;;5050968;28;20037;-72
2023/09/08 00:40:54;;;;;;;8.57;5.57;;;26.50;79.00;;;;;;5059982;28;20048;-71
2023/09/08 00:43:20;;;;;;;7.38;6.10;;;26.60;78.90;;;;;;5066354;28;20056;-71
2023/09/08 00:45:46;;;;;;;6.85;5.32;;;26.90;78.60;;;;;;5084753;28;20053;-71
2023/09/08 00:48:12;;;;;;;7.78;6.32;;;26.50;78.40;;;;;;5050131;28;20044;-71
2023/09/08 00:50:38;;;;;;;7.95;5.35;;;26.40;78.30;;;;;;5050643;28;20120;-70
2023/09/08 00:53:05;;;;;;;8.15;5.93;;;26.60;78.30;;;;;;5026390;28;20140;-71
2023/09/08 00:55:31;;;;;;;7.13;5.20;;;26.80;78.50;;;;;;5061569;28;20041;-71
2023/09/08 00:57:58;;;;;;;7.82;5.75;;;26.40;81.80;;;;;;5061172;28;20401;-71
2023/09/08 01:00:27;;;;;;;8.50;6.05;;;26.60;78.70;;;;;;5041623;28;20037;-71
2023/09/08 01:02:53;;;;;;;7.07;5.50;;;26.50;77.00;;;;;;5066865;28;20080;-71
2023/09/08 01:05:19;;;;;;;7.85;5.90;;;26.70;78.50;;;;;;5046534;28;20110;-71
2023/09/08 01:07:46;;;;;;;7.22;5.57;;;26.70;78.50;;;;;;5045965;28;20530;-71
2023/09/08 01:10:12;;;;;;;6.65;5.20;;;26.60;78.60;;;;;;5054191;28;20037;-67
2023/09/08 01:12:39;;;;;;;7.28;5.78;;;26.40;78.80;;;;;;5082661;28;20379;-69
2023/09/08 01:15:06;;;;;;;7.70;5.22;;;27.70;79.60;;;;;;5087810;28;20037;-71
2023/09/08 01:17:32;;;;;;;7.53;5.43;;;26.60;78.40;;;;;;5083480;28;20049;-63
2023/09/08 01:20:22;;;;;;;7.20;5.80;;;26.50;78.50;;;;;;5064365;28;20126;-71
2023/09/08 01:23:11;;;;;;;6.57;5.13;;;26.60;77.90;;;;;;5049347;28;20875;-70
2023/09/08 01:26:13;;;;;;;7.15;5.45;;;26.50;77.60;;;;;;5041099;28;20047;-65
2023/09/08 01:28:40;;;;;;;6.35;5.28;;;26.70;79.30;;;;;;5075966;28;20157;-64
2023/09/08 01:31:06;;;;;;;6.70;5.55;;;26.40;78.40;;;;;;5090064;28;20048;-67
2023/09/08 01:33:32;;;;;;;7.05;5.22;;;26.80;78.60;;;;;;5071684;28;20049;-70
2023/09/08 01:35:58;;;;;;;6.93;5.40;;;26.50;78.60;;;;;;5055848;28;20048;-70
2023/09/08 01:38:24;;;;;;;7.20;5.10;;;26.60;78.40;;;;;;5064549;28;20121;-70
2023/09/08 01:40:50;;;;;;;7.10;5.60;;;26.70;78.60;;;;;;5069788;28;20053;-65
2023/09/08 01:43:16;;;;;;;7.70;5.70;;;26.70;78.50;;;;;;5053651;28;20041;-70
2023/09/08 01:45:42;;;;;;;8.35;6.05;;;26.40;78.50;;;;;;5022341;28;20040;-71
2023/09/08 01:48:08;;;;;;;6.68;5.50;;;26.30;78.30;;;;;;5042958;28;20032;-70
2023/09/08 01:50:34;;;;;;;7.95;5.38;;;26.30;78.60;;;;;;5043374;28;20052;-70
2023/09/08 01:53:00;;;;;;;8.20;5.63;;;25.00;77.10;;;;;;5089482;28;20040;-69
2023/09/08 01:55:26;;;;;;;7.00;5.40;;;26.60;78.60;;;;;;5064023;28;20045;-70
2023/09/08 01:57:55;;;;;;;7.03;5.13;;;26.30;78.50;;;;;;5068757;28;20480;-70
2023/09/08 02:00:21;;;;;;;7.60;5.47;;;26.60;79.00;;;;;;5070006;28;20063;-68
2023/09/08 02:02:47;;;;;;;7.63;5.53;;;26.40;78.10;;;;;;5056243;28;20123;-70
2023/09/08 02:05:14;;;;;;;7.38;5.32;;;26.70;78.70;;;;;;5068829;28;20045;-70
2023/09/08 02:07:40;;;;;;;7.85;5.97;;;26.50;78.80;;;;;;5063109;28;20040;-69
2023/09/08 02:10:06;;;;;;;7.13;5.10;;;26.30;78.40;;;;;;5021348;28;20494;-65
2023/09/08 02:12:33;;;;;;;7.00;5.35;;;26.40;78.30;;;;;;5016654;28;20077;-70
2023/09/08 02:14:59;;;;;;;7.18;5.68;;;26.60;78.00;;;;;;5053700;28;20041;-71
2023/09/08 02:17:25;;;;;;;6.97;5.55;;;26.30;78.60;;;;;;5048827;28;20041;-71
2023/09/08 02:19:51;;;;;;;6.88;5.78;;;26.60;78.60;;;;;;5058186;28;20505;-63
2023/09/08 02:22:23;;;;;;;6.50;5.60;;;26.30;78.30;;;;;;5016533;28;20049;-71
2023/09/08 02:24:49;;;;;;;7.78;5.20;;;26.30;78.70;;;;;;5049930;28;20034;-67
2023/09/08 02:27:15;;;;;;;6.82;5.30;;;26.40;78.50;;;;;;5038671;28;20040;-69
2023/09/08 02:29:41;;;;;;;6.63;5.80;;;26.30;78.40;;;;;;5067404;28;20041;-71
2023/09/08 02:32:07;;;;;;;7.38;5.50;;;26.20;78.40;;;;;;5052528;28;20052;-70
2023/09/08 02:34:37;;;;;;;6.63;5.13;;;26.30;78.70;;;;;;5064385;28;20045;-70
2023/09/08 02:37:03;;;;;;;7.03;5.50;;;26.20;78.70;;;;;;5072847;28;20045;-70
2023/09/08 02:39:29;;;;;;;6.97;5.20;;;26.40;78.40;;;;;;5032728;28;20049;-68
2023/09/08 02:41:54;;;;;;;6.90;5.50;;;26.40;78.70;;;;;;5016057;28;20042;-70
2023/09/08 02:44:25;;;;;;;7.18;5.40;;;26.50;78.90;;;;;;5032061;28;20047;-71
2023/09/08 02:46:51;;;;;;;7.47;5.22;;;26.50;78.50;;;;;;5042688;28;20052;-71
2023/09/08 02:49:17;;;;;;;6.35;5.18;;;26.10;78.40;;;;;;5050758;28;20061;-71
2023/09/08 02:51:43;;;;;;;8.40;5.63;;;26.60;79.10;;;;;;5048717;28;20049;-70
2023/09/08 02:54:09;;;;;;;6.50;5.13;;;24.80;77.80;;;;;;5049393;28;20382;-69
2023/09/08 02:56:38;;;;;;;7.22;5.60;;;26.50;79.30;;;;;;5049560;28;20041;-71
2023/09/08 02:59:03;;;;;;;7.32;5.50;;;26.60;79.40;;;;;;5049710;28;20037;-71
2023/09/08 03:01:30;;;;;;;6.20;5.03;;;24.60;78.30;;;;;;5068944;28;20063;-70
2023/09/08 03:03:56;;;;;;;6.70;5.28;;;24.50;78.50;;;;;;5037521;28;20042;-71
2023/09/08 03:06:22;;;;;;;7.40;5.15;;;26.60;79.50;;;;;;5032091;28;20107;-65
2023/09/08 03:08:47;;;;;;;7.43;4.70;;;26.30;78.80;;;;;;5019334;28;20041;-63
2023/09/08 03:11:13;;;;;;;7.28;5.55;;;26.50;78.90;;;;;;5074822;28;20128;-71
2023/09/08 03:13:42;;;;;;;8.15;5.10;;;26.30;79.20;;;;;;5083570;28;20076;-70
2023/09/08 03:16:08;;;;;;;7.22;5.13;;;26.10;78.70;;;;;;5047849;28;20045;-70
2023/09/08 03:18:36;;;;;;;6.72;4.70;;;26.40;79.10;;;;;;5033410;28;20083;-68
2023/09/08 03:21:09;;;;;;;6.78;5.15;;;26.20;78.80;;;;;;5034104;28;20060;-67
2023/09/08 03:23:42;;;;;;;7.07;4.85;;;26.10;79.10;;;;;;5033447;28;20372;-67
2023/09/08 03:26:09;;;;;;;6.30;5.13;;;26.30;79.80;;;;;;5029537;28;20053;-69
2023/09/08 03:28:35;;;;;;;7.65;5.30;;;26.40;79.10;;;;;;5038996;28;20491;-63
2023/09/08 03:31:04;;;;;;;6.40;5.40;;;26.10;78.90;;;;;;5051649;28;20055;-62
2023/09/08 03:33:30;;;;;;;7.10;5.47;;;26.20;78.90;;;;;;5036440;28;20155;-62
2023/09/08 03:35:56;;;;;;;7.63;5.47;;;25.50;78.20;;;;;;5030644;28;20045;-62
2023/09/08 03:38:22;;;;;;;8.60;5.47;;;26.30;78.80;;;;;;5036880;28;20097;-69
2023/09/08 03:40:48;;;;;;;7.30;5.43;;;26.40;78.90;;;;;;5034950;28;20049;-70
2023/09/08 03:43:14;;;;;;;7.53;5.50;;;26.10;78.60;;;;;;5050435;28;20040;-70
2023/09/08 03:45:42;;;;;;;7.93;5.40;;;26.10;78.90;;;;;;5040616;28;20124;-70
2023/09/08 03:48:11;;;;;;;6.60;5.28;;;26.20;79.10;;;;;;5041332;28;20095;-65
2023/09/08 03:50:37;;;;;;;6.35;5.15;;;26.10;78.90;;;;;;5051582;28;20044;-70
2023/09/08 03:53:03;;;;;;;8.02;5.35;;;26.40;79.00;;;;;;5030644;28;20091;-71
2023/09/08 03:55:29;;;;;;;7.22;5.13;;;26.00;78.80;;;;;;5032410;28;20041;-71
2023/09/08 03:57:55;;;;;;;8.75;5.40;;;26.30;78.90;;;;;;5036448;28;20049;-70
2023/09/08 04:00:23;;;;;;;6.80;5.30;;;26.00;78.80;;;;;;5046062;28;20037;-70
2023/09/08 04:02:49;;;;;;;6.85;5.57;;;26.20;79.00;;;;;;5035881;28;20120;-70
2023/09/08 04:05:18;;;;;;;6.75;5.25;;;26.20;78.90;;;;;;5047297;28;20137;-69
2023/09/08 04:07:45;;;;;;;6.22;5.10;;;25.90;78.80;;;;;;5010223;28;20418;-69
2023/09/08 04:10:12;;;;;;;7.80;5.40;;;26.10;78.50;;;;;;5031294;28;20122;-70
2023/09/08 04:12:39;;;;;;;6.18;5.03;;;26.10;79.00;;;;;;5036549;28;20068;-70
2023/09/08 04:15:05;;;;;;;7.25;4.65;;;26.20;79.10;;;;;;5046758;28;20064;-68
2023/09/08 04:17:31;;;;;;;8.35;5.05;;;26.20;82.20;;;;;;5060566;28;20549;-63
2023/09/08 04:19:57;;;;;;;6.55;5.10;;;26.00;78.90;;;;;;5061805;28;20045;-70
2023/09/08 04:22:23;;;;;;;7.80;5.35;;;26.20;78.80;;;;;;5086888;28;20051;-71
2023/09/08 04:24:49;;;;;;;7.07;5.63;;;26.10;82.50;;;;;;5050624;28;20636;-70
2023/09/08 04:27:15;;;;;;;7.00;5.57;;;26.00;79.10;;;;;;5057325;28;20120;-70
2023/09/08 04:29:41;;;;;;;6.50;5.18;;;24.30;77.90;;;;;;5060024;28;20163;-62
2023/09/08 04:32:08;;;;;;;7.15;5.13;;;26.10;79.00;;;;;;5056488;28;20033;-71
2023/09/08 04:34:41;;;;;;;7.10;5.15;;;26.10;79.10;;;;;;5043875;28;20048;-71
2023/09/08 04:37:07;;;;;;;8.63;5.70;;;25.90;79.40;;;;;;5062173;28;20382;-70
2023/09/08 04:39:33;;;;;;;10.40;5.22;;;26.10;79.40;;;;;;5065644;28;20045;-70
2023/09/08 04:41:59;;;;;;;6.47;5.13;;;26.10;79.40;;;;;;5056282;28;20037;-70
2023/09/08 04:44:25;;;;;;;7.28;4.85;;;26.20;79.40;;;;;;5038568;28;20040;-70
2023/09/08 04:46:52;;;;;;;7.70;5.07;;;26.20;79.40;;;;;;5061271;28;20143;-62
2023/09/08 04:49:18;;;;;;;6.63;5.38;;;26.60;79.90;;;;;;5077720;28;20036;-71
2023/09/08 04:51:44;;;;;;;7.88;5.38;;;25.90;79.30;;;;;;5055116;28;20040;-70
2023/09/08 04:54:10;;;;;;;8.23;5.30;;;25.90;79.10;;;;;;5073177;28;20036;-71
2023/09/08 04:56:36;;;;;;;7.95;5.47;;;26.10;79.60;;;;;;5063351;28;20056;-71
2023/09/08 04:59:02;;;;;;;7.18;4.97;;;25.60;78.80;;;;;;5085772;28;20103;-63
2023/09/08 05:01:29;;;;;;;7.70;5.07;;;26.20;79.40;;;;;;5077551;28;20044;-70
2023/09/08 05:03:55;;;;;;;7.80;5.20;;;25.90;79.60;;;;;;5038072;28;20123;-70
2023/09/08 05:06:21;;;;;;;7.43;5.22;;;25.80;79.40;;;;;;5053863;28;20119;-70
2023/09/08 05:08:47;;;;;;;8.57;5.47;;;26.20;79.30;;;;;;5068744;28;20045;-70
2023/09/08 05:11:13;;;;;;;8.07;5.60;;;26.00;79.00;;;;;;5062151;28;20049;-69
2023/09/08 05:13:39;;;;;;;8.07;5.13;;;26.50;80.20;;;;;;5055269;28;20037;-70
2023/09/08 05:16:11;;;;;;;7.00;5.22;;;26.10;80.00;;;;;;5055154;28;20045;-71
2023/09/08 05:18:40;;;;;;;7.32;5.57;;;26.30;78.60;;;;;;5038772;28;20057;-68
2023/09/08 05:21:07;;;;;;;7.20;5.03;;;26.10;80.30;;;;;;5031627;28;20135;-63
2023/09/08 05:23:33;;;;;;;8.27;5.15;;;26.00;79.20;;;;;;5053983;28;20068;-71
2023/09/08 05:25:59;;;;;;;7.15;5.50;;;26.10;79.50;;;;;;5070569;28;20144;-70
2023/09/08 05:28:25;;;;;;;10.30;6.10;;;26.10;79.60;;;;;;5037462;28;20486;-65
2023/09/08 05:30:52;;;;;;;8.00;4.97;;;26.10;78.90;;;;;;5056075;28;20129;-62
2023/09/08 05:33:18;;;;;;;8.73;5.60;;;26.10;79.30;;;;;;5070282;28;20132;-70
2023/09/08 05:35:44;;;;;;;7.05;5.20;;;26.10;79.40;;;;;;5040334;28;20139;-71
2023/09/08 05:38:11;;;;;;;8.55;5.82;;;26.10;78.90;;;;;;5039547;28;20083;-70
2023/09/08 05:40:37;;;;;;;9.80;5.63;;;26.40;79.20;;;;;;5071959;28;20094;-68
2023/09/08 05:43:04;;;;;;;7.72;5.13;;;26.40;79.00;;;;;;5043565;28;20037;-70
2023/09/08 05:45:31;;;;;;;6.88;5.35;;;26.40;78.70;;;;;;5023567;28;20056;-69
2023/09/08 05:47:57;;;;;;;7.57;5.30;;;26.70;79.00;;;;;;5081319;28;20086;-71
2023/09/08 05:50:23;;;;;;;7.13;5.10;;;26.40;78.30;;;;;;5037102;28;20133;-71
2023/09/08 05:52:49;;;;;;;9.13;5.07;;;26.60;78.40;;;;;;5060719;28;20132;-71
2023/09/08 05:55:15;;;;;;;8.00;5.78;;;25.70;77.60;;;;;;5019494;28;20045;-71
2023/09/08 05:57:41;;;;;;;11.80;5.35;;;26.80;78.50;;;;;;5079249;28;20037;-62
2023/09/08 06:00:07;;;;;;;7.75;5.05;;;26.80;78.00;;;;;;5069505;28;20434;-71
2023/09/08 06:02:33;;;;;;;9.23;6.05;;;26.70;78.20;;;;;;5054651;28;20493;-71
2023/09/08 06:04:59;;;;;;;7.63;5.63;;;26.90;78.40;;;;;;5052564;28;20052;-70
2023/09/08 06:07:25;;;;;;;6.70;5.40;;;26.60;77.80;;;;;;5060760;28;20149;-70
2023/09/08 06:09:51;;;;;;;7.90;5.20;;;26.70;77.60;;;;;;5051261;28;20040;-69
2023/09/08 06:12:16;;;;;;;8.25;5.95;;;26.70;77.70;;;;;;5043968;28;20102;-62
2023/09/08 06:14:42;;;;;;;7.40;5.45;;;26.90;77.60;;;;;;5072469;28;20048;-71
2023/09/08 06:17:10;;;;;;;9.55;5.43;;;27.10;77.70;;;;;;5064142;28;20409;-70
2023/09/08 06:19:36;;;;;;;7.35;5.20;;;26.90;77.10;;;;;;5070566;28;20065;-70
2023/09/08 06:22:02;;;;;;;7.68;4.70;;;27.10;77.00;;;;;;5072693;28;20044;-70
2023/09/08 06:24:28;;;;;;;8.68;5.32;;;27.10;77.20;;;;;;5053843;28;20040;-70
2023/09/08 06:26:54;;;;;;;9.00;6.53;;;27.30;76.80;;;;;;5041152;28;20090;-70
2023/09/08 06:29:20;;;;;;;10.70;8.20;;;27.50;76.10;;;;;;5024128;28;20048;-71
2023/09/08 06:31:46;;;;;;;9.65;8.18;;;27.40;74.90;;;;;;5053054;28;20139;-71
2023/09/08 06:34:12;;;;;;;9.88;8.68;;;27.30;74.80;;;;;;5037651;28;20474;-70
2023/09/08 06:36:38;;;;;;;10.00;8.15;;;27.10;74.70;;;;;;5039761;28;20092;-68
2023/09/08 06:39:04;;;;;;;8.85;7.93;;;27.60;74.80;;;;;;5070236;28;20493;-71
2023/09/08 06:41:30;;;;;;;8.10;7.03;;;27.50;74.70;;;;;;5082336;28;20098;-71
2023/09/08 06:43:56;;;;;;;10.23;7.55;;;27.70;74.80;;;;;;5065626;28;20490;-71
2023/09/08 06:46:22;;;;;;;10.70;8.10;;;27.20;74.20;;;;;;5035093;28;20049;-71
2023/09/08 06:48:48;;;;;;;12.18;8.80;;;27.20;73.90;;;;;;5066694;28;20071;-71
2023/09/08 06:51:14;;;;;;;11.63;9.65;;;27.30;74.40;;;;;;5053498;28;20566;-64
2023/09/08 06:53:42;;;;;;;12.40;9.95;;;27.40;74.10;;;;;;5038795;28;20135;-70
2023/09/08 06:56:08;;;;;;;12.75;9.65;;;27.40;74.20;;;;;;5052131;28;20049;-70
2023/09/08 06:58:34;;;;;;;13.27;9.73;;;27.20;74.40;;;;;;5065081;28;20153;-71
2023/09/08 07:01:03;;;;;;;11.45;9.70;;;27.30;74.20;;;;;;5068860;28;20041;-71
2023/09/08 07:03:36;;;;;;;11.45;8.93;;;27.20;77.40;;;;;;5055601;28;20094;-68
2023/09/08 07:06:03;;;;;;;10.80;8.98;;;26.80;74.20;;;;;;5069559;28;20048;-72
2023/09/08 07:08:29;;;;;;;11.65;9.07;;;28.00;75.30;;;;;;5041706;28;20068;-70
2023/09/08 07:10:55;;;;;;;12.05;9.52;;;27.30;75.60;;;;;;5068468;28;20482;-71
2023/09/08 07:13:21;;;;;;;13.50;9.20;;;27.00;76.50;;;;;;5050362;28;20044;-70
2023/09/08 07:15:47;;;;;;;11.88;9.00;;;27.30;75.60;;;;;;5035027;28;20045;-70
2023/09/08 07:18:13;;;;;;;9.90;8.90;;;27.40;75.90;;;;;;5034632;28;20049;-70
2023/09/08 07:20:39;;;;;;;11.40;9.05;;;27.60;75.80;;;;;;5059517;28;20163;-62
2023/09/08 07:23:05;;;;;;;10.05;8.38;;;27.10;75.20;;;;;;5050723;28;20150;-62
2023/09/08 07:25:31;;;;;;;10.38;8.27;;;27.20;75.40;;;;;;5040847;28;20052;-62
2023/09/08 07:27:57;;;;;;;13.43;9.65;;;27.20;74.50;;;;;;5054953;28;20458;-62
2023/09/08 07:30:23;;;;;;;12.30;9.45;;;27.10;74.80;;;;;;5051569;28;20066;-63
2023/09/08 07:32:49;;;;;;;14.82;8.90;;;27.70;75.10;;;;;;5051895;28;20039;-64
2023/09/08 07:35:16;;;;;;;10.20;7.97;;;27.50;75.10;;;;;;5082633;28;20041;-62
2023/09/08 07:37:42;;;;;;;12.80;8.55;;;27.40;75.00;;;;;;5060688;28;20445;-63
2023/09/08 07:40:11;;;;;;;11.10;8.52;;;27.40;74.90;;;;;;5072536;28;20072;-62
2023/09/08 07:42:38;;;;;;;11.63;8.35;;;27.60;74.80;;;;;;5070708;28;20477;-63
2023/09/08 07:45:04;;;;;;;10.15;8.23;;;27.30;74.40;;;;;;5037639;28;20506;-63
2023/09/08 07:47:30;;;;;;;10.38;7.50;;;27.50;74.10;;;;;;5055020;28;20066;-71
2023/09/08 07:50:16;;;;;;;13.73;8.50;;;27.60;74.60;;;;;;5054886;28;20048;-71
2023/09/08 07:52:42;;;;;;;13.18;8.65;;;27.80;74.80;;;;;;5071486;28;20087;-71
2023/09/08 07:55:08;;;;;;;10.77;9.55;;;27.80;74.90;;;;;;5061021;28;20052;-72
2023/09/08 07:57:34;;;;;;;13.40;8.23;;;28.00;74.40;;;;;;5051640;28;20410;-71
2023/09/08 08:00:01;;;;;;;13.38;8.98;;;28.00;74.30;;;;;;5075224;28;20098;-69
2023/09/08 08:02:27;;;;;;;12.73;10.30;;;28.20;74.50;;;;;;5053049;28;20045;-71
2023/09/08 08:04:53;;;;;;;15.10;9.23;;;27.90;74.10;;;;;;5068809;28;20041;-71
2023/09/08 08:07:19;;;;;;;13.45;10.05;;;27.90;74.40;;;;;;5081770;28;20049;-70
2023/09/08 08:09:44;;;;;;;10.80;9.15;;;26.50;73.30;;;;;;5065059;28;20041;-62
2023/09/08 08:12:10;;;;;;;13.95;9.30;;;28.10;74.30;;;;;;5052549;28;20128;-70
2023/09/08 08:14:37;;;;;;;12.73;9.05;;;28.00;74.40;;;;;;5062588;28;20051;-71
2023/09/08 08:17:03;;;;;;;13.63;9.13;;;28.30;74.30;;;;;;5050991;28;20545;-72
2023/09/08 08:19:29;;;;;;;15.27;8.52;;;28.30;74.00;;;;;;5056945;28;20048;-66
2023/09/08 08:21:56;;;;;;;11.02;8.25;;;28.30;74.30;;;;;;5052121;28;20058;-71
2023/09/08 08:24:23;;;;;;;13.45;8.68;;;28.40;74.50;;;;;;5034515;28;20120;-71
2023/09/08 08:26:51;;;;;;;11.60;8.85;;;28.30;74.30;;;;;;5067403;28;20512;-71
2023/09/08 08:29:17;;;;;;;12.45;8.68;;;28.80;74.80;;;;;;5051992;28;20078;-71
2023/09/08 08:31:43;;;;;;;11.40;8.35;;;28.80;74.40;;;;;;5064091;28;20049;-62
2023/09/08 08:34:09;;;;;;;14.02;8.25;;;28.30;74.30;;;;;;5062232;28;20381;-62
2023/09/08 08:36:35;;;;;;;9.13;7.43;;;28.30;74.30;;;;;;5071592;28;20048;-72
2023/09/08 08:39:01;;;;;;;11.10;7.90;;;28.00;74.10;;;;;;5072065;28;20045;-71
2023/09/08 08:41:28;;;;;;;11.25;7.07;;;28.20;74.50;;;;;;5069052;28;20040;-62
2023/09/08 08:43:54;;;;;;;10.25;6.68;;;28.30;74.60;;;;;;5084865;28;20059;-64
2023/09/08 08:46:21;;;;;;;9.93;6.63;;;28.40;74.30;;;;;;5085559;28;20048;-62
2023/09/08 08:48:47;;;;;;;9.85;6.70;;;28.40;74.70;;;;;;5052968;28;20079;-72
2023/09/08 08:51:12;;;;;;;8.65;6.45;;;28.20;74.70;;;;;;5057961;28;20149;-62
2023/09/08 08:53:39;;;;;;;13.32;7.32;;;28.40;74.80;;;;;;5087252;28;20033;-71
2023/09/08 08:56:08;;;;;;;9.55;6.75;;;28.30;75.20;;;;;;5086764;28;20126;-70
2023/09/08 08:58:35;;;;;;;12.38;6.93;;;28.20;75.10;;;;;;5086958;28;20090;-71
2023/09/08 09:01:01;;;;;;;9.70;6.70;;;28.20;75.10;;;;;;5080632;28;20033;-71
2023/09/08 09:03:28;;;;;;;9.43;6.70;;;28.20;75.10;;;;;;5034292;28;20494;-71
2023/09/08 09:05:54;;;;;;;11.43;6.55;;;28.00;75.50;;;;;;5052133;28;20417;-70
2023/09/08 09:08:20;;;;;;;9.95;7.43;;;28.40;76.00;;;;;;5062419;28;20036;-71
2023/09/08 09:10:46;;;;;;;10.70;6.93;;;28.00;75.40;;;;;;5084267;28;20076;-71
2023/09/08 09:13:12;;;;;;;9.32;6.45;;;28.20;75.30;;;;;;5043050;28;20036;-71
2023/09/08 09:15:38;;;;;;;10.93;7.28;;;28.30;75.80;;;;;;5057255;28;20053;-72
2023/09/08 09:18:05;;;;;;;10.65;6.95;;;28.20;75.60;;;;;;5073178;28;20040;-67
2023/09/08 09:20:32;;;;;;;8.98;6.75;;;28.10;76.00;;;;;;5067339;28;20047;-70
2023/09/08 09:23:01;;;;;;;9.13;6.75;;;28.00;75.80;;;;;;5069876;28;20114;-71
2023/09/08 09:25:33;;;;;;;9.57;7.10;;;28.10;75.70;;;;;;5043747;28;20387;-70
2023/09/08 09:28:00;;;;;;;10.20;6.47;;;26.10;74.90;;;;;;5057242;28;20075;-71
2023/09/08 09:30:27;;;;;;;9.32;6.45;;;28.10;76.20;;;;;;5071039;28;20048;-71
2023/09/08 09:33:03;;;;;;;8.73;5.63;;;27.90;76.10;;;;;;5054692;28;20037;-63
2023/09/08 09:35:47;;;;;;;10.52;6.32;;;28.00;76.10;;;;;;5054995;28;20055;-71
2023/09/08 09:38:13;;;;;;;10.40;6.20;;;28.10;76.10;;;;;;5087144;28;20088;-71
2023/09/08 09:40:39;;;;;;;9.38;6.47;;;28.80;76.10;;;;;;5073864;28;20075;-69
2023/09/08 09:43:07;;;;;;;10.00;5.95;;;28.40;75.80;;;;;;5070711;28;20080;-71
2023/09/08 09:45:36;;;;;;;8.20;5.85;;;28.40;75.40;;;;;;5084213;28;20052;-63
2023/09/08 09:48:05;;;;;;;8.18;5.82;;;28.10;75.20;;;;;;5037238;28;20039;-71
2023/09/08 09:50:49;;;;;;;7.50;6.15;;;28.20;74.60;;;;;;5054841;28;20055;-71
2023/09/08 09:53:16;;;;;;;10.82;6.63;;;28.50;75.70;;;;;;5072327;28;20044;-71
2023/09/08 09:55:44;;;;;;;12.00;6.45;;;28.50;74.90;;;;;;5060626;28;20044;-71
2023/09/08 09:58:14;;;;;;;7.20;5.72;;;30.30;75.80;;;;;;5055872;28;20110;-71
2023/09/08 10:00:47;;;;;;;9.18;5.70;;;28.60;74.60;;;;;;5054991;28;20394;-70
2023/09/08 10:03:24;;;;;;;10.52;6.10;;;28.60;73.50;;;;;;5054528;28;20103;-71
2023/09/08 10:05:50;;;;;;;11.38;5.85;;;28.60;74.50;;;;;;5038330;28;20549;-69
2023/09/08 10:08:17;;;;;;;9.40;5.68;;;28.80;74.00;;;;;;5055543;28;20085;-71
2023/09/08 10:10:45;;;;;;;9.73;5.70;;;28.80;73.80;;;;;;5053501;28;20116;-71
2023/09/08 10:13:11;;;;;;;8.48;5.28;;;28.80;73.40;;;;;;5054323;28;20049;-71
2023/09/08 10:15:37;;;;;;;8.40;6.45;;;28.80;74.10;;;;;;5036744;28;20056;-71
2023/09/08 10:18:06;;;;;;;7.55;5.70;;;29.00;73.20;;;;;;5075100;28;20167;-71
2023/09/08 10:20:33;;;;;;;6.88;5.70;;;30.90;74.80;;;;;;5054192;28;20049;-71
2023/09/08 10:23:04;;;;;;;8.02;5.57;;;28.90;72.90;;;;;;5054279;28;20052;-71
2023/09/08 10:25:31;;;;;;;10.70;5.67;;;29.10;73.70;;;;;;5035606;28;20128;-71
2023/09/08 10:27:58;;;;;;;7.47;5.72;;;28.80;73.20;;;;;;5070722;28;20040;-71
2023/09/08 10:30:24;;;;;;;9.95;5.60;;;29.10;74.10;;;;;;5087804;28;20124;-70
2023/09/08 10:32:50;;;;;;;12.63;6.60;;;26.90;72.10;;;;;;5059476;28;20116;-71
2023/09/08 10:35:19;;;;;;;11.77;5.72;;;29.40;73.80;;;;;;5069394;28;20044;-69
2023/09/08 10:37:45;;;;;;;10.73;5.30;;;29.80;73.60;;;;;;5080089;28;20447;-70
2023/09/08 10:40:25;;;;;;;8.35;5.82;;;29.30;73.20;;;;;;5062737;28;20659;-70
2023/09/08 10:43:20;;;;;;;8.85;6.00;;;29.30;71.40;;;;;;5072607;28;20051;-71
2023/09/08 10:45:46;;;;;;;10.88;5.65;;;29.30;72.50;;;;;;5060743;28;20088;-63
2023/09/08 10:48:14;;;;;;;9.55;5.80;;;29.40;72.50;;;;;;5064512;28;20120;-70
2023/09/08 10:50:41;;;;;;;11.63;5.88;;;29.40;72.30;;;;;;5058463;28;20041;-62
2023/09/08 10:53:08;;;;;;;7.07;5.72;;;29.40;72.50;;;;;;5077994;28;20056;-63
2023/09/08 10:55:41;;;;;;;7.13;5.60;;;29.50;72.50;;;;;;5036062;28;20049;-64
2023/09/08 10:58:10;;;;;;;11.15;6.32;;;29.30;70.90;;;;;;5019504;28;20045;-72
2023/09/08 11:00:54;;;;;;;7.88;5.53;;;29.50;72.10;;;;;;5007911;28;20051;-68
2023/09/08 11:03:38;;;;;;;7.53;5.93;;;29.90;72.60;;;;;;5051835;28;20045;-72
2023/09/08 11:06:05;;;;;;;8.95;5.70;;;29.50;72.20;;;;;;5052952;28;20568;-71
2023/09/08 11:08:32;;;;;;;7.65;5.60;;;29.50;72.20;;;;;;5032595;28;20053;-66
2023/09/08 11:10:57;;;;;;;9.40;6.03;;;29.50;72.00;;;;;;5035582;28;20457;-64
2023/09/08 11:13:23;;;;;;;8.38;5.70;;;29.80;71.90;;;;;;5035684;28;20037;-64
2023/09/08 11:15:53;;;;;;;8.90;5.45;;;29.60;71.50;;;;;;5064253;28;20502;-64
2023/09/08 11:18:28;;;;;;;8.43;5.28;;;29.60;71.30;;;;;;5052664;28;20041;-64
2023/09/08 11:20:54;;;;;;;11.50;5.80;;;29.90;71.80;;;;;;5053060;28;20065;-64
2023/09/08 11:23:21;;;;;;;7.55;5.78;;;29.80;71.10;;;;;;5056437;28;20056;-63
2023/09/08 11:25:47;;;;;;;8.75;5.70;;;29.80;71.10;;;;;;5051499;28;20048;-62
2023/09/08 11:28:13;;;;;;;9.07;5.88;;;30.00;71.10;;;;;;5052298;28;20047;-63
2023/09/08 11:30:39;;;;;;;8.25;5.50;;;29.80;70.60;;;;;;5046833;28;20560;-63
2023/09/08 11:33:14;;;;;;;7.90;5.43;;;29.70;70.50;;;;;;5018105;28;20091;-62
2023/09/08 11:35:40;;;;;;;8.40;6.00;;;29.70;70.80;;;;;;5053527;28;20071;-62
2023/09/08 11:38:05;;;;;;;8.40;6.07;;;29.90;70.40;;;;;;5052575;28;20049;-62
2023/09/08 11:40:32;;;;;;;8.40;5.60;;;30.20;70.10;;;;;;5055188;28;20040;-62
2023/09/08 11:42:58;;;;;;;7.07;5.25;;;32.00;72.00;;;;;;5035677;28;20044;-70
2023/09/08 11:45:24;;;;;;;8.27;5.53;;;30.30;71.00;;;;;;5072688;28;20052;-72
2023/09/08 11:47:53;;;;;;;10.55;5.80;;;30.00;70.00;;;;;;5054119;28;20045;-74
2023/09/08 11:50:19;;;;;;;7.50;5.25;;;30.10;70.50;;;;;;5052232;28;20048;-73
2023/09/08 11:52:50;;;;;;;7.20;5.78;;;30.10;70.40;;;;;;5042486;28;20045;-62
2023/09/08 11:55:17;;;;;;;8.23;5.53;;;29.90;69.90;;;;;;5052565;28;20045;-62
2023/09/08 11:57:44;;;;;;;10.95;5.55;;;30.30;70.50;;;;;;5054779;28;20390;-63
2023/09/08 12:00:14;;;;;;;9.90;5.57;;;30.40;70.30;;;;;;5034065;28;20153;-62
2023/09/08 12:02:40;;;;;;;7.47;5.40;;;30.10;69.40;;;;;;5064994;28;20044;-62
2023/09/08 12:05:11;;;;;;;8.10;5.82;;;30.20;69.50;;;;;;5072298;28;20037;-63
2023/09/08 12:07:37;;;;;;;9.07;5.78;;;30.20;69.80;;;;;;5063238;28;20418;-62
2023/09/08 12:10:09;;;;;;;9.93;6.07;;;30.50;69.40;;;;;;5072391;28;20123;-62
2023/09/08 12:12:41;;;;;;;9.63;5.77;;;30.60;69.50;;;;;;5086105;28;20036;-62
2023/09/08 12:15:07;;;;;;;9.48;5.55;;;30.30;69.50;;;;;;5061769;28;20052;-66
2023/09/08 12:17:33;;;;;;;13.10;5.70;;;30.40;69.00;;;;;;5053287;28;20478;-64
2023/09/08 12:20:00;;;;;;;7.38;5.57;;;30.60;68.70;;;;;;5050630;28;20051;-63
2023/09/08 12:22:27;;;;;;;10.10;5.65;;;30.50;68.20;;;;;;5031086;28;20136;-62
2023/09/08 12:24:56;;;;;;;8.65;5.22;;;30.30;67.50;;;;;;5032295;28;20041;-62
2023/09/08 12:27:23;;;;;;;8.48;5.70;;;30.40;67.30;;;;;;5032078;28;20045;-62
2023/09/08 12:30:08;;;;;;;7.57;5.35;;;30.80;68.30;;;;;;5042809;28;20126;-63
2023/09/08 12:32:36;;;;;;;7.43;5.07;;;30.50;68.20;;;;;;5044076;28;20045;-63
2023/09/08 12:35:05;;;;;;;7.38;5.45;;;30.50;67.80;;;;;;5031654;28;20459;-63
2023/09/08 12:37:33;;;;;;;7.18;5.68;;;30.30;68.00;;;;;;5032026;28;20081;-63
2023/09/08 12:40:00;;;;;;;7.78;5.30;;;30.20;67.60;;;;;;5014626;28;20065;-63
2023/09/08 12:42:29;;;;;;;9.93;6.00;;;30.40;68.40;;;;;;5032448;28;20057;-63
2023/09/08 12:44:56;;;;;;;8.98;5.20;;;30.60;68.00;;;;;;5032208;28;20053;-63